createdAt,value
2018-07-08T00:00:35.512Z,12.35
2018-07-08T00:01:35.530Z,12.27
2018-07-08T00:02:35.496Z,12.18
2018-07-08T00:03:35.483Z,12.21
2018-07-08T00:04:35.471Z,12.12
2018-07-08T00:05:35.458Z,12.10
2018-07-08T00:06:35.449Z,12.10
2018-07-08T00:07:35.437Z,11.97
2018-07-08T00:08:35.425Z,12.00
2018-07-08T00:09:35.418Z,12.06
2018-07-08T00:10:35.413Z,11.95
2018-07-08T00:11:35.397Z,11.94
2018-07-08T00:12:35.403Z,11.90
2018-07-08T00:13:35.371Z,11.99
2018-07-08T00:14:35.358Z,12.10
2018-07-08T00:15:35.354Z,12.09
2018-07-08T00:16:35.343Z,12.15
2018-07-08T00:17:35.335Z,12.10
2018-07-08T00:18:35.316Z,12.09
2018-07-08T00:19:35.308Z,12.21
2018-07-08T00:20:35.304Z,12.21
2018-07-08T00:21:35.288Z,12.22
2018-07-08T00:22:35.304Z,12.24
2018-07-08T00:23:35.268Z,12.17
2018-07-08T00:24:35.256Z,12.20
2018-07-08T00:25:35.245Z,12.06
2018-07-08T00:26:35.230Z,12.06
2018-07-08T00:27:35.219Z,11.97
2018-07-08T00:28:35.213Z,11.91
2018-07-08T00:29:35.203Z,11.86
2018-07-08T00:30:35.205Z,11.81
2018-07-08T00:31:35.191Z,11.73
2018-07-08T00:32:35.168Z,11.69
2018-07-08T00:33:35.162Z,11.57
2018-07-08T00:34:35.151Z,11.55
2018-07-08T00:35:35.140Z,11.50
2018-07-08T00:36:35.127Z,11.43
2018-07-08T00:37:35.114Z,11.33
2018-07-08T00:38:35.124Z,11.26
2018-07-08T00:39:35.091Z,11.26
2018-07-08T00:40:35.083Z,11.19
2018-07-08T00:41:35.073Z,11.11
2018-07-08T00:42:35.065Z,11.15
2018-07-08T00:43:35.098Z,11.07
2018-07-08T00:44:35.042Z,11.02
2018-07-08T00:45:35.036Z,11.08
2018-07-08T00:46:35.015Z,11.04
2018-07-08T00:47:35.011Z,10.94
2018-07-08T00:48:34.999Z,10.89
2018-07-08T00:49:34.988Z,10.93
2018-07-08T00:50:34.972Z,10.89
2018-07-08T00:51:34.963Z,10.79
2018-07-08T00:52:34.952Z,10.79
2018-07-08T00:53:34.945Z,10.69
2018-07-08T00:54:34.963Z,10.69
2018-07-08T00:55:34.927Z,10.72
2018-07-08T00:56:34.913Z,10.69
2018-07-08T00:57:34.898Z,10.74
2018-07-08T00:58:34.885Z,10.64
2018-07-08T00:59:34.903Z,10.60
2018-07-08T01:00:34.876Z,10.64
2018-07-08T01:01:34.924Z,10.64
2018-07-08T01:02:34.855Z,10.54
2018-07-08T01:03:34.832Z,10.48
2018-07-08T01:04:34.823Z,10.46
2018-07-08T01:05:34.846Z,10.42
2018-07-08T01:06:34.808Z,10.38
2018-07-08T01:07:34.797Z,10.38
2018-07-08T01:08:34.809Z,10.25
2018-07-08T01:09:34.771Z,10.30
2018-07-08T01:10:34.784Z,10.31
2018-07-08T01:11:34.747Z,10.30
2018-07-08T01:12:34.735Z,10.22
2018-07-08T01:13:34.785Z,10.30
2018-07-08T01:14:34.720Z,10.16
2018-07-08T01:15:34.708Z,10.19
2018-07-08T01:16:34.699Z,10.31
2018-07-08T01:17:34.682Z,10.22
2018-07-08T01:18:34.669Z,10.17
2018-07-08T01:19:34.665Z,10.20
2018-07-08T01:20:34.653Z,10.22
2018-07-08T01:21:34.644Z,10.26
2018-07-08T01:22:34.628Z,10.16
2018-07-08T01:23:34.616Z,10.17
2018-07-08T01:24:34.608Z,10.13
2018-07-08T01:25:34.599Z,10.10
2018-07-08T01:26:34.590Z,10.05
2018-07-08T01:27:34.581Z,10.04
2018-07-08T01:28:34.566Z,10.02
2018-07-08T01:29:34.553Z,10.05
2018-07-08T01:30:34.540Z,10.02
2018-07-08T01:31:34.538Z,10.04
2018-07-08T01:32:34.523Z,10.07
2018-07-08T01:33:34.515Z,10.07
2018-07-08T01:34:34.503Z,9.92
2018-07-08T01:35:34.499Z,10.05
2018-07-08T01:36:34.478Z,10.09
2018-07-08T01:37:34.502Z,9.99
2018-07-08T01:38:34.461Z,9.98
2018-07-08T01:39:34.449Z,10.07
2018-07-08T01:40:34.436Z,10.09
2018-07-08T01:41:34.426Z,10.02
2018-07-08T01:42:34.440Z,10.01
2018-07-08T01:43:34.417Z,9.95
2018-07-08T01:44:34.389Z,9.98
2018-07-08T01:45:34.386Z,10.02
2018-07-08T01:46:34.372Z,10.02
2018-07-08T01:47:34.361Z,9.99
2018-07-08T01:48:34.369Z,9.97
2018-07-08T01:49:34.338Z,10.12
2018-07-08T01:50:34.331Z,10.10
2018-07-08T01:51:34.318Z,9.89
2018-07-08T01:52:34.310Z,10.01
2018-07-08T01:53:34.296Z,10.02
2018-07-08T01:54:34.284Z,10.07
2018-07-08T01:55:34.273Z,10.01
2018-07-08T01:56:34.261Z,10.02
2018-07-08T01:57:34.256Z,9.98
2018-07-08T01:58:34.270Z,9.92
2018-07-08T01:59:34.231Z,9.77
2018-07-08T02:00:34.226Z,9.79
2018-07-08T02:01:34.205Z,9.83
2018-07-08T02:02:34.197Z,9.72
2018-07-08T02:03:34.214Z,9.79
2018-07-08T02:04:34.175Z,9.68
2018-07-08T02:05:34.173Z,9.74
2018-07-08T02:06:34.156Z,9.68
2018-07-08T02:07:34.145Z,9.56
2018-07-08T02:08:34.129Z,9.58
2018-07-08T02:09:34.128Z,9.56
2018-07-08T02:10:34.114Z,9.51
2018-07-08T02:11:34.102Z,9.62
2018-07-08T02:12:34.093Z,9.62
2018-07-08T02:13:34.076Z,9.61
2018-07-08T02:14:34.069Z,9.55
2018-07-08T02:15:34.057Z,9.51
2018-07-08T02:16:34.043Z,9.51
2018-07-08T02:17:34.040Z,9.48
2018-07-08T02:18:34.026Z,9.47
2018-07-08T02:19:34.037Z,9.29
2018-07-08T02:20:34.015Z,9.37
2018-07-08T02:21:33.990Z,9.37
2018-07-08T02:22:33.985Z,9.26
2018-07-08T02:23:33.973Z,9.32
2018-07-08T02:24:33.999Z,9.34
2018-07-08T02:25:33.953Z,9.34
2018-07-08T02:26:33.939Z,9.50
2018-07-08T02:27:33.931Z,9.36
2018-07-08T02:28:33.919Z,9.48
2018-07-08T02:29:33.911Z,9.44
2018-07-08T02:30:33.913Z,9.54
2018-07-08T02:31:33.898Z,9.37
2018-07-08T02:32:33.886Z,9.41
2018-07-08T02:33:33.862Z,9.43
2018-07-08T02:34:33.853Z,9.41
2018-07-08T02:35:33.848Z,9.50
2018-07-08T02:36:33.828Z,9.37
2018-07-08T02:37:33.825Z,9.41
2018-07-08T02:38:33.812Z,9.36
2018-07-08T02:39:33.804Z,9.40
2018-07-08T02:40:33.856Z,9.29
2018-07-08T02:41:33.812Z,9.31
2018-07-08T02:42:33.777Z,9.26
2018-07-08T02:43:33.761Z,9.28
2018-07-08T02:44:33.749Z,9.16
2018-07-08T02:45:33.735Z,9.21
2018-07-08T02:46:33.727Z,9.23
2018-07-08T02:47:33.717Z,9.19
2018-07-08T02:48:33.705Z,9.18
2018-07-08T02:49:33.697Z,9.13
2018-07-08T02:50:33.684Z,9.06
2018-07-08T02:51:33.680Z,9.14
2018-07-08T02:52:33.664Z,9.13
2018-07-08T02:53:33.647Z,9.23
2018-07-08T02:54:33.643Z,9.13
2018-07-08T02:55:33.637Z,9.16
2018-07-08T02:56:33.638Z,9.13
2018-07-08T02:57:33.604Z,9.10
2018-07-08T02:58:33.597Z,9.11
2018-07-08T02:59:33.585Z,9.14
2018-07-08T03:00:33.587Z,9.10
2018-07-08T03:01:33.614Z,9.00
2018-07-08T03:02:33.555Z,9.00
2018-07-08T03:03:33.548Z,9.00
2018-07-08T03:04:33.553Z,9.02
2018-07-08T03:05:33.517Z,8.99
2018-07-08T03:06:33.537Z,9.06
2018-07-08T03:07:33.500Z,8.89
2018-07-08T03:08:33.506Z,8.91
2018-07-08T03:09:33.481Z,8.79
2018-07-08T03:10:33.469Z,8.79
2018-07-08T03:11:33.454Z,8.89
2018-07-08T03:12:33.448Z,8.79
2018-07-08T03:13:33.446Z,8.87
2018-07-08T03:14:33.426Z,8.82
2018-07-08T03:15:33.422Z,8.81
2018-07-08T03:16:33.424Z,8.69
2018-07-08T03:17:33.391Z,8.78
2018-07-08T03:18:33.380Z,8.79
2018-07-08T03:19:33.368Z,8.69
2018-07-08T03:20:33.358Z,8.76
2018-07-08T03:21:33.354Z,8.79
2018-07-08T03:22:33.342Z,8.73
2018-07-08T03:23:33.329Z,8.84
2018-07-08T03:24:33.322Z,8.79
2018-07-08T03:25:33.313Z,8.79
2018-07-08T03:26:33.295Z,8.78
2018-07-08T03:27:33.332Z,8.81
2018-07-08T03:28:33.277Z,8.79
2018-07-08T03:29:33.261Z,8.76
2018-07-08T03:30:33.252Z,8.70
2018-07-08T03:31:33.245Z,8.67
2018-07-08T03:32:33.260Z,8.60
2018-07-08T03:33:33.308Z,8.56
2018-07-08T03:34:33.219Z,8.48
2018-07-08T03:35:33.201Z,8.51
2018-07-08T03:36:33.192Z,8.56
2018-07-08T03:37:33.174Z,8.52
2018-07-08T03:38:33.168Z,8.45
2018-07-08T03:39:33.165Z,8.44
2018-07-08T03:40:33.146Z,8.49
2018-07-08T03:41:33.138Z,8.48
2018-07-08T03:42:33.125Z,8.53
2018-07-08T03:43:33.114Z,8.56
2018-07-08T03:44:33.100Z,8.52
2018-07-08T03:45:33.095Z,8.63
2018-07-08T03:46:33.087Z,8.64
2018-07-08T03:47:33.071Z,8.67
2018-07-08T03:48:33.091Z,8.67
2018-07-08T03:49:33.057Z,8.73
2018-07-08T03:50:33.048Z,8.79
2018-07-08T03:51:33.031Z,8.73
2018-07-08T03:52:33.031Z,8.67
2018-07-08T03:53:33.009Z,8.79
2018-07-08T03:54:33.005Z,8.69
2018-07-08T03:55:33.012Z,8.69
2018-07-08T03:56:32.976Z,8.84
2018-07-08T03:57:32.959Z,8.87
2018-07-08T03:58:32.951Z,8.87
2018-07-08T03:59:32.963Z,8.79
2018-07-08T04:00:32.934Z,8.91
2018-07-08T04:01:32.916Z,8.89
2018-07-08T04:02:32.909Z,8.89
2018-07-08T04:03:32.897Z,8.91
2018-07-08T04:04:32.912Z,8.95
2018-07-08T04:05:32.879Z,8.85
2018-07-08T04:06:32.871Z,8.76
2018-07-08T04:07:32.857Z,8.84
2018-07-08T04:08:32.848Z,8.78
2018-07-08T04:09:32.831Z,8.84
2018-07-08T04:10:32.823Z,8.79
2018-07-08T04:11:32.815Z,8.79
2018-07-08T04:12:32.849Z,8.69
2018-07-08T04:13:32.795Z,8.76
2018-07-08T04:14:32.781Z,8.78
2018-07-08T04:15:32.777Z,8.78
2018-07-08T04:16:32.756Z,8.74
2018-07-08T04:17:32.755Z,8.89
2018-07-08T04:18:32.739Z,8.92
2018-07-08T04:19:32.734Z,8.92
2018-07-08T04:20:32.721Z,8.89
2018-07-08T04:21:32.702Z,8.97
2018-07-08T04:22:32.695Z,8.97
2018-07-08T04:23:32.702Z,8.92
2018-07-08T04:24:32.677Z,9.04
2018-07-08T04:25:32.684Z,8.91
2018-07-08T04:26:32.652Z,8.92
2018-07-08T04:27:32.641Z,9.03
2018-07-08T04:28:32.634Z,9.06
2018-07-08T04:29:32.618Z,9.11
2018-07-08T04:30:32.637Z,9.19
2018-07-08T04:31:32.605Z,9.19
2018-07-08T04:32:32.597Z,9.14
2018-07-08T04:33:32.575Z,9.16
2018-07-08T04:34:32.563Z,9.16
2018-07-08T04:35:32.573Z,9.21
2018-07-08T04:36:32.569Z,9.26
2018-07-08T04:37:32.558Z,9.21
2018-07-08T04:38:32.527Z,9.32
2018-07-08T04:39:32.514Z,9.32
2018-07-08T04:40:32.506Z,9.51
2018-07-08T04:41:32.527Z,9.44
2018-07-08T04:42:32.478Z,9.55
2018-07-08T04:43:32.467Z,9.66
2018-07-08T04:44:32.454Z,9.58
2018-07-08T04:45:32.450Z,9.61
2018-07-08T04:46:32.448Z,9.72
2018-07-08T04:47:32.429Z,9.80
2018-07-08T04:48:32.418Z,9.91
2018-07-08T04:49:32.409Z,9.98
2018-07-08T04:50:32.394Z,10.02
2018-07-08T04:51:32.385Z,9.91
2018-07-08T04:52:32.376Z,10.04
2018-07-08T04:53:32.358Z,10.10
2018-07-08T04:54:32.347Z,10.33
2018-07-08T04:55:32.345Z,10.37
2018-07-08T04:56:32.350Z,10.49
2018-07-08T04:57:32.320Z,10.48
2018-07-08T04:58:32.308Z,10.54
2018-07-08T04:59:32.297Z,10.51
2018-07-08T05:00:32.287Z,10.51
2018-07-08T05:01:32.271Z,10.51
2018-07-08T05:02:32.268Z,10.54
2018-07-08T05:03:32.270Z,10.68
2018-07-08T05:04:32.250Z,10.76
2018-07-08T05:05:32.229Z,10.87
2018-07-08T05:06:32.257Z,10.90
2018-07-08T05:07:32.214Z,11.05
2018-07-08T05:08:32.196Z,11.04
2018-07-08T05:09:32.203Z,11.04
2018-07-08T05:10:32.202Z,11.14
2018-07-08T05:11:32.173Z,11.08
2018-07-08T05:12:32.162Z,11.18
2018-07-08T05:13:32.170Z,11.18
2018-07-08T05:14:32.141Z,11.17
2018-07-08T05:15:32.170Z,11.19
2018-07-08T05:16:32.108Z,11.29
2018-07-08T05:17:32.133Z,11.33
2018-07-08T05:18:32.097Z,11.43
2018-07-08T05:19:32.099Z,11.40
2018-07-08T05:20:32.209Z,11.41
2018-07-08T05:21:32.063Z,11.43
2018-07-08T05:22:32.054Z,11.54
2018-07-08T05:23:32.045Z,11.51
2018-07-08T05:24:32.119Z,11.59
2018-07-08T05:25:32.013Z,11.62
2018-07-08T05:26:32.012Z,11.75
2018-07-08T05:27:32.004Z,11.78
2018-07-08T05:28:31.983Z,11.78
2018-07-08T05:29:31.980Z,11.88
2018-07-08T05:30:31.964Z,11.90
2018-07-08T05:31:31.953Z,11.95
2018-07-08T05:32:31.943Z,12.07
2018-07-08T05:33:31.986Z,12.13
2018-07-08T05:34:31.917Z,12.09
2018-07-08T05:35:31.970Z,12.20
2018-07-08T05:36:31.957Z,12.27
2018-07-08T05:37:31.882Z,12.32
2018-07-08T05:38:31.883Z,12.31
2018-07-08T05:39:31.869Z,12.36
2018-07-08T05:40:31.858Z,12.37
2018-07-08T05:41:31.849Z,12.36
2018-07-08T05:42:31.833Z,12.36
2018-07-08T05:43:31.823Z,12.43
2018-07-08T05:44:31.814Z,12.49
2018-07-08T05:45:31.796Z,12.54
2018-07-08T05:46:31.791Z,12.57
2018-07-08T05:47:31.775Z,12.64
2018-07-08T05:48:31.768Z,12.68
2018-07-08T05:49:31.767Z,12.61
2018-07-08T05:50:31.802Z,12.64
2018-07-08T05:51:31.736Z,12.82
2018-07-08T05:52:31.726Z,12.82
2018-07-08T05:53:31.722Z,12.91
2018-07-08T05:54:31.704Z,12.94
2018-07-08T05:55:31.705Z,12.87
2018-07-08T05:56:31.683Z,13.08
2018-07-08T05:57:31.665Z,13.20
2018-07-08T05:58:31.687Z,13.30
2018-07-08T05:59:31.678Z,13.35
2018-07-08T06:00:31.635Z,13.38
2018-07-08T06:01:31.629Z,13.53
2018-07-08T06:02:31.618Z,13.68
2018-07-08T06:03:31.607Z,13.75
2018-07-08T06:04:31.596Z,13.96
2018-07-08T06:05:31.604Z,13.99
2018-07-08T06:06:31.572Z,14.04
2018-07-08T06:07:31.563Z,14.05
2018-07-08T06:08:31.557Z,14.12
2018-07-08T06:09:31.538Z,14.20
2018-07-08T06:10:31.530Z,14.26
2018-07-08T06:11:31.514Z,14.33
2018-07-08T06:12:31.506Z,14.37
2018-07-08T06:13:31.496Z,14.36
2018-07-08T06:14:31.491Z,14.45
2018-07-08T06:15:31.585Z,14.37
2018-07-08T06:16:31.464Z,14.47
2018-07-08T06:17:31.451Z,14.63
2018-07-08T06:18:31.539Z,14.58
2018-07-08T06:19:31.428Z,14.65
2018-07-08T06:20:31.420Z,14.85
2018-07-08T06:21:31.412Z,14.81
2018-07-08T06:22:31.400Z,14.77
2018-07-08T06:23:31.386Z,14.59
2018-07-08T06:24:31.375Z,14.55
2018-07-08T06:25:31.368Z,14.54
2018-07-08T06:26:31.360Z,14.44
2018-07-08T06:27:31.348Z,14.43
2018-07-08T06:28:31.335Z,14.43
2018-07-08T06:29:31.324Z,14.47
2018-07-08T06:30:31.413Z,14.53
2018-07-08T06:31:31.297Z,14.48
2018-07-08T06:32:31.290Z,14.55
2018-07-08T06:33:31.280Z,14.55
2018-07-08T06:34:31.271Z,14.55
2018-07-08T06:35:31.285Z,14.55
2018-07-08T06:36:31.260Z,14.66
2018-07-08T06:37:31.233Z,14.63
2018-07-08T06:38:31.236Z,14.70
2018-07-08T06:39:31.216Z,14.65
2018-07-08T06:40:31.205Z,14.53
2018-07-08T06:41:31.210Z,14.53
2018-07-08T06:42:31.199Z,14.58
2018-07-08T06:43:31.187Z,14.54
2018-07-08T06:44:31.215Z,14.65
2018-07-08T06:45:31.196Z,14.77
2018-07-08T06:46:31.143Z,14.84
2018-07-08T06:47:31.129Z,14.91
2018-07-08T06:48:31.118Z,14.84
2018-07-08T06:49:31.103Z,14.78
2018-07-08T06:50:31.092Z,14.91
2018-07-08T06:51:31.087Z,14.85
2018-07-08T06:52:31.093Z,14.84
2018-07-08T06:53:31.065Z,14.70
2018-07-08T06:54:31.054Z,14.78
2018-07-08T06:55:31.040Z,14.78
2018-07-08T06:56:31.030Z,14.73
2018-07-08T06:57:31.019Z,14.81
2018-07-08T06:58:31.011Z,14.88
2018-07-08T06:59:31.002Z,14.91
2018-07-08T07:00:30.988Z,14.84
2018-07-08T07:01:30.993Z,14.86
2018-07-08T07:02:30.964Z,14.92
2018-07-08T07:03:30.958Z,14.92
2018-07-08T07:04:30.941Z,14.86
2018-07-08T07:05:30.933Z,14.88
2018-07-08T07:06:30.973Z,14.92
2018-07-08T07:07:30.913Z,14.89
2018-07-08T07:08:30.900Z,14.97
2018-07-08T07:09:30.906Z,14.94
2018-07-08T07:10:30.879Z,15.00
2018-07-08T07:11:30.870Z,15.09
2018-07-08T07:12:30.860Z,15.07
2018-07-08T07:13:30.843Z,15.10
2018-07-08T07:14:30.844Z,15.21
2018-07-08T07:15:30.831Z,15.18
2018-07-08T07:16:30.811Z,15.21
2018-07-08T07:17:30.873Z,15.21
2018-07-08T07:18:30.810Z,15.29
2018-07-08T07:19:30.783Z,15.31
2018-07-08T07:20:30.771Z,15.40
2018-07-08T07:21:30.764Z,15.51
2018-07-08T07:22:30.770Z,15.51
2018-07-08T07:23:30.735Z,15.59
2018-07-08T07:24:30.727Z,15.57
2018-07-08T07:25:30.749Z,15.62
2018-07-08T07:26:30.707Z,15.68
2018-07-08T07:27:30.731Z,15.75
2018-07-08T07:28:30.702Z,15.68
2018-07-08T07:29:30.675Z,15.73
2018-07-08T07:30:30.682Z,15.64
2018-07-08T07:31:30.664Z,15.70
2018-07-08T07:32:30.674Z,15.76
2018-07-08T07:33:30.649Z,15.75
2018-07-08T07:34:30.615Z,15.76
2018-07-08T07:35:30.603Z,15.73
2018-07-08T07:36:30.598Z,15.68
2018-07-08T07:37:30.591Z,15.76
2018-07-08T07:38:30.580Z,15.72
2018-07-08T07:39:30.573Z,15.83
2018-07-08T07:40:30.558Z,15.88
2018-07-08T07:41:30.544Z,15.86
2018-07-08T07:42:30.528Z,15.95
2018-07-08T07:43:30.525Z,15.98
2018-07-08T07:44:30.517Z,16.13
2018-07-08T07:45:30.519Z,16.12
2018-07-08T07:46:30.503Z,16.17
2018-07-08T07:47:30.477Z,16.24
2018-07-08T07:48:30.470Z,16.16
2018-07-08T07:49:30.474Z,16.23
2018-07-08T07:50:30.447Z,16.33
2018-07-08T07:51:30.440Z,16.33
2018-07-08T07:52:30.428Z,16.41
2018-07-08T07:53:30.446Z,16.49
2018-07-08T07:54:30.406Z,16.49
2018-07-08T07:55:30.395Z,16.50
2018-07-08T07:56:30.379Z,16.66
2018-07-08T07:57:30.371Z,16.64
2018-07-08T07:58:30.369Z,16.61
2018-07-08T07:59:30.346Z,16.64
2018-07-08T08:00:30.352Z,16.68
2018-07-08T08:01:30.333Z,16.68
2018-07-08T08:02:30.330Z,16.72
2018-07-08T08:03:30.309Z,16.84
2018-07-08T08:04:30.299Z,16.89
2018-07-08T08:05:30.289Z,16.97
2018-07-08T08:06:30.285Z,16.96
2018-07-08T08:07:30.314Z,17.01
2018-07-08T08:08:30.272Z,17.04
2018-07-08T08:09:30.245Z,17.11
2018-07-08T08:10:30.274Z,17.14
2018-07-08T08:11:30.231Z,17.20
2018-07-08T08:12:30.211Z,17.27
2018-07-08T08:13:30.198Z,17.27
2018-07-08T08:14:30.203Z,17.27
2018-07-08T08:15:30.191Z,17.27
2018-07-08T08:16:30.182Z,17.24
2018-07-08T08:17:30.170Z,17.39
2018-07-08T08:18:30.145Z,17.38
2018-07-08T08:19:30.194Z,17.51
2018-07-08T08:20:30.122Z,17.56
2018-07-08T08:21:30.116Z,17.59
2018-07-08T08:22:30.108Z,17.70
2018-07-08T08:23:30.094Z,17.78
2018-07-08T08:24:30.109Z,17.76
2018-07-08T08:25:30.072Z,17.89
2018-07-08T08:26:30.076Z,17.97
2018-07-08T08:27:30.045Z,18.04
2018-07-08T08:28:30.039Z,18.11
2018-07-08T08:29:30.030Z,18.20
2018-07-08T08:30:30.021Z,18.11
2018-07-08T08:31:30.001Z,18.37
2018-07-08T08:32:30.000Z,18.47
2018-07-08T08:33:29.990Z,18.58
2018-07-08T08:34:29.977Z,18.90
2018-07-08T08:35:30.000Z,19.24
2018-07-08T08:36:29.958Z,19.55
2018-07-08T08:37:29.947Z,19.76
2018-07-08T08:38:29.933Z,20.09
2018-07-08T08:39:29.917Z,20.29
2018-07-08T08:40:29.912Z,20.41
2018-07-08T08:41:29.903Z,20.52
2018-07-08T08:42:29.893Z,20.66
2018-07-08T08:43:29.895Z,20.82
2018-07-08T08:44:29.871Z,20.93
2018-07-08T08:45:29.866Z,21.15
2018-07-08T08:46:29.847Z,21.32
2018-07-08T08:47:29.847Z,21.43
2018-07-08T08:48:29.839Z,21.64
2018-07-08T08:49:29.830Z,21.73
2018-07-08T08:50:29.816Z,21.91
2018-07-08T08:51:29.796Z,22.07
2018-07-08T08:52:29.859Z,22.14
2018-07-08T08:53:29.794Z,22.26
2018-07-08T08:54:29.775Z,22.35
2018-07-08T08:55:29.792Z,22.54
2018-07-08T08:56:29.753Z,22.54
2018-07-08T08:57:29.746Z,22.76
2018-07-08T08:58:29.728Z,22.85
2018-07-08T08:59:29.721Z,22.78
2018-07-08T09:00:29.707Z,22.85
2018-07-08T09:01:29.702Z,22.85
2018-07-08T09:02:29.692Z,23.02
2018-07-08T09:03:29.674Z,23.08
2018-07-08T09:04:29.667Z,23.39
2018-07-08T09:05:29.663Z,23.32
2018-07-08T09:06:29.655Z,23.48
2018-07-08T09:07:29.660Z,23.37
2018-07-08T09:08:29.656Z,23.24
2018-07-08T09:09:29.618Z,23.37
2018-07-08T09:10:29.606Z,23.27
2018-07-08T09:11:29.598Z,23.43
2018-07-08T09:12:29.585Z,23.73
2018-07-08T09:13:29.590Z,23.86
2018-07-08T09:14:29.569Z,23.95
2018-07-08T09:15:29.585Z,24.16
2018-07-08T09:16:29.553Z,24.02
2018-07-08T09:17:29.536Z,24.08
2018-07-08T09:18:29.522Z,24.17
2018-07-08T09:19:29.519Z,24.32
2018-07-08T09:20:29.510Z,24.26
2018-07-08T09:21:29.514Z,24.24
2018-07-08T09:22:29.489Z,24.32
2018-07-08T09:23:29.473Z,24.18
2018-07-08T09:24:29.469Z,24.03
2018-07-08T09:25:29.460Z,24.29
2018-07-08T09:26:29.469Z,24.51
2018-07-08T09:27:29.441Z,24.81
2018-07-08T09:28:29.433Z,24.85
2018-07-08T09:29:29.414Z,25.07
2018-07-08T09:30:29.405Z,25.13
2018-07-08T09:31:29.421Z,25.11
2018-07-08T09:32:29.446Z,25.31
2018-07-08T09:33:29.382Z,25.21
2018-07-08T09:34:29.373Z,25.47
2018-07-08T09:35:29.364Z,25.72
2018-07-08T09:36:29.372Z,25.63
2018-07-08T09:37:29.354Z,25.84
2018-07-08T09:38:29.360Z,25.70
2018-07-08T09:39:29.330Z,25.98
2018-07-08T09:40:29.319Z,25.91
2018-07-08T09:41:29.306Z,25.99
2018-07-08T09:42:29.296Z,26.21
2018-07-08T09:43:29.282Z,26.18
2018-07-08T09:44:29.276Z,26.15
2018-07-08T09:45:29.269Z,26.26
2018-07-08T09:46:29.262Z,26.53
2018-07-08T09:47:29.258Z,26.21
2018-07-08T09:48:29.236Z,26.26
2018-07-08T09:49:29.226Z,26.16
2018-07-08T09:50:29.210Z,26.19
2018-07-08T09:51:29.208Z,26.21
2018-07-08T09:52:29.222Z,26.58
2018-07-08T09:53:29.193Z,26.63
2018-07-08T09:54:29.190Z,26.65
2018-07-08T09:55:29.171Z,26.95
2018-07-08T09:56:29.171Z,26.90
2018-07-08T09:57:29.154Z,26.81
2018-07-08T09:58:29.144Z,26.34
2018-07-08T09:59:29.125Z,26.36
2018-07-08T10:00:29.112Z,26.22
2018-07-08T10:01:29.100Z,25.99
2018-07-08T10:02:29.111Z,25.68
2018-07-08T10:03:29.077Z,25.38
2018-07-08T10:04:29.083Z,25.16
2018-07-08T10:05:29.061Z,24.85
2018-07-08T10:06:29.058Z,24.60
2018-07-08T10:07:29.063Z,24.51
2018-07-08T10:08:29.027Z,24.24
2018-07-08T10:09:29.015Z,24.06
2018-07-08T10:10:29.007Z,23.98
2018-07-08T10:11:29.002Z,23.84
2018-07-08T10:12:28.983Z,23.87
2018-07-08T10:13:28.993Z,23.63
2018-07-08T10:14:28.958Z,23.39
2018-07-08T10:15:28.952Z,23.32
2018-07-08T10:16:28.941Z,23.25
2018-07-08T10:17:28.934Z,23.25
2018-07-08T10:18:28.924Z,23.02
2018-07-08T10:19:28.927Z,23.02
2018-07-08T10:20:28.907Z,22.99
2018-07-08T10:21:28.943Z,23.03
2018-07-08T10:22:28.887Z,22.84
2018-07-08T10:23:28.871Z,22.80
2018-07-08T10:24:28.862Z,22.90
2018-07-08T10:25:28.847Z,22.88
2018-07-08T10:26:28.835Z,22.72
2018-07-08T10:27:28.825Z,22.73
2018-07-08T10:28:28.816Z,22.85
2018-07-08T10:29:28.811Z,22.83
2018-07-08T10:30:28.938Z,22.90
2018-07-08T10:31:28.787Z,22.90
2018-07-08T10:32:28.777Z,22.98
2018-07-08T10:33:28.763Z,23.00
2018-07-08T10:34:28.754Z,23.15
2018-07-08T10:35:28.740Z,23.28
2018-07-08T10:36:28.812Z,23.28
2018-07-08T10:37:28.724Z,23.32
2018-07-08T10:38:28.713Z,23.34
2018-07-08T10:39:28.703Z,23.32
2018-07-08T10:40:28.688Z,23.28
2018-07-08T10:41:28.683Z,23.18
2018-07-08T10:42:28.672Z,23.28
2018-07-08T10:43:28.743Z,23.24
2018-07-08T10:44:28.654Z,23.18
2018-07-08T10:45:28.637Z,23.31
2018-07-08T10:46:28.653Z,23.28
2018-07-08T10:47:28.618Z,23.47
2018-07-08T10:48:28.635Z,23.73
2018-07-08T10:49:28.616Z,23.93
2018-07-08T10:50:28.590Z,24.08
2018-07-08T10:51:28.579Z,24.47
2018-07-08T10:52:28.572Z,24.74
2018-07-08T10:53:28.554Z,25.03
2018-07-08T10:54:28.548Z,25.60
2018-07-08T10:55:28.617Z,26.00
2018-07-08T10:56:28.541Z,26.56
2018-07-08T10:57:28.513Z,26.80
2018-07-08T10:58:28.504Z,26.96
2018-07-08T10:59:28.514Z,26.95
2018-07-08T11:00:28.480Z,26.70
2018-07-08T11:01:28.477Z,26.52
2018-07-08T11:02:28.464Z,26.03
2018-07-08T11:03:28.454Z,25.73
2018-07-08T11:04:28.449Z,25.55
2018-07-08T11:05:28.435Z,25.38
2018-07-08T11:06:28.422Z,25.22
2018-07-08T11:07:28.412Z,25.01
2018-07-08T11:08:28.396Z,24.92
2018-07-08T11:09:28.423Z,24.50
2018-07-08T11:10:28.387Z,24.28
2018-07-08T11:11:28.368Z,23.98
2018-07-08T11:12:28.360Z,24.05
2018-07-08T11:13:28.352Z,23.96
2018-07-08T11:14:28.346Z,24.06
2018-07-08T11:15:28.523Z,24.10
2018-07-08T11:16:28.321Z,24.32
2018-07-08T11:17:28.305Z,24.51
2018-07-08T11:18:28.299Z,24.57
2018-07-08T11:19:28.292Z,24.76
2018-07-08T11:20:28.309Z,24.84
2018-07-08T11:21:28.286Z,25.01
2018-07-08T11:22:28.267Z,25.14
2018-07-08T11:23:28.258Z,25.32
2018-07-08T11:24:28.246Z,25.47
2018-07-08T11:25:28.229Z,25.55
2018-07-08T11:26:28.222Z,26.05
2018-07-08T11:27:28.227Z,26.62
2018-07-08T11:28:28.238Z,27.21
2018-07-08T11:29:28.198Z,27.52
2018-07-08T11:30:28.197Z,28.07
2018-07-08T11:31:28.185Z,28.79
2018-07-08T11:32:28.196Z,29.26
2018-07-08T11:33:28.165Z,29.78
2018-07-08T11:34:28.238Z,30.08
2018-07-08T11:35:28.176Z,30.81
2018-07-08T11:36:28.194Z,31.20
2018-07-08T11:37:28.129Z,31.33
2018-07-08T11:38:28.139Z,31.44
2018-07-08T11:39:28.142Z,31.17
2018-07-08T11:40:28.103Z,31.40
2018-07-08T11:41:28.115Z,31.69
2018-07-08T11:42:28.099Z,31.70
2018-07-08T11:43:28.083Z,31.97
2018-07-08T11:44:28.073Z,32.30
2018-07-08T11:45:28.073Z,32.68
2018-07-08T11:46:28.059Z,32.86
2018-07-08T11:47:28.057Z,33.04
2018-07-08T11:48:28.043Z,33.45
2018-07-08T11:49:28.029Z,33.08
2018-07-08T11:50:28.039Z,32.75
2018-07-08T11:51:28.019Z,32.67
2018-07-08T11:52:28.048Z,32.90
2018-07-08T11:53:28.005Z,32.89
2018-07-08T11:54:27.995Z,33.28
2018-07-08T11:55:28.031Z,33.49
2018-07-08T11:56:28.102Z,33.47
2018-07-08T11:57:27.968Z,33.45
2018-07-08T11:58:27.964Z,33.27
2018-07-08T11:59:27.958Z,33.30
2018-07-08T12:00:27.952Z,33.64
2018-07-08T12:01:27.947Z,34.10
2018-07-08T12:02:28.019Z,34.25
2018-07-08T12:03:27.942Z,34.57
2018-07-08T12:04:27.918Z,34.52
2018-07-08T12:05:27.922Z,34.66
2018-07-08T12:06:27.971Z,34.62
2018-07-08T12:07:27.898Z,34.81
2018-07-08T12:08:27.898Z,34.83
2018-07-08T12:09:27.894Z,34.38
2018-07-08T12:10:27.876Z,34.16
2018-07-08T12:11:27.872Z,34.55
2018-07-08T12:12:27.860Z,34.80
2018-07-08T12:13:27.857Z,34.92
2018-07-08T12:14:27.904Z,34.99
2018-07-08T12:15:27.845Z,35.18
2018-07-08T12:16:27.828Z,34.95
2018-07-08T12:17:27.830Z,35.11
2018-07-08T12:18:27.818Z,35.48
2018-07-08T12:19:27.815Z,36.08
2018-07-08T12:20:27.808Z,36.08
2018-07-08T12:21:27.797Z,35.64
2018-07-08T12:22:27.793Z,35.39
2018-07-08T12:23:27.806Z,35.55
2018-07-08T12:24:27.782Z,35.61
2018-07-08T12:25:28.963Z,35.60
2018-07-08T12:26:27.785Z,35.93
2018-07-08T12:27:27.841Z,36.09
2018-07-08T12:28:27.748Z,36.23
2018-07-08T12:29:27.738Z,36.12
2018-07-08T12:30:27.738Z,36.00
2018-07-08T12:31:27.724Z,35.98
2018-07-08T12:32:27.776Z,36.43
2018-07-08T12:33:27.769Z,36.31
2018-07-08T12:34:27.706Z,36.23
2018-07-08T12:35:27.693Z,36.12
2018-07-08T12:36:27.684Z,36.14
2018-07-08T12:37:27.711Z,35.71
2018-07-08T12:38:27.675Z,36.12
2018-07-08T12:39:27.698Z,36.51
2018-07-08T12:40:27.662Z,36.51
2018-07-08T12:41:27.650Z,36.27
2018-07-08T12:42:27.643Z,36.52
2018-07-08T12:43:27.670Z,36.35
2018-07-08T12:44:27.687Z,36.40
2018-07-08T12:45:27.642Z,36.37
2018-07-08T12:46:27.616Z,36.39
2018-07-08T12:47:27.612Z,36.57
2018-07-08T12:48:27.602Z,36.46
2018-07-08T12:49:27.598Z,36.35
2018-07-08T12:50:27.596Z,36.42
2018-07-08T12:51:27.603Z,36.40
2018-07-08T12:52:27.576Z,36.47
2018-07-08T12:53:27.566Z,36.68
2018-07-08T12:54:27.559Z,36.67
2018-07-08T12:55:27.559Z,36.36
2018-07-08T12:56:27.544Z,36.45
2018-07-08T12:57:27.551Z,36.25
2018-07-08T12:58:27.570Z,36.86